createdAt,value
2022-11-20T00:00:17.829Z,69.92
2022-11-20T00:02:44.417Z,70.48
2022-11-20T00:05:11.006Z,70.59
2022-11-20T00:07:37.614Z,70.69
2022-11-20T00:10:04.645Z,70.54
2022-11-20T00:12:31.213Z,70.51
2022-11-20T00:14:57.779Z,70.60
2022-11-20T00:17:24.369Z,70.90
2022-11-20T00:19:50.983Z,70.35
2022-11-20T00:22:17.528Z,70.53
2022-11-20T00:24:44.149Z,70.17
2022-11-20T00:27:10.805Z,70.37
2022-11-20T00:29:37.406Z,69.99
2022-11-20T00:32:04.061Z,69.94
2022-11-20T00:34:30.652Z,70.40
2022-11-20T00:36:57.215Z,70.81
2022-11-20T00:39:24.003Z,70.20
2022-11-20T00:41:51.257Z,70.59
2022-11-20T00:44:17.861Z,70.73
2022-11-20T00:46:44.394Z,70.98
2022-11-20T00:49:10.947Z,70.98
2022-11-20T00:51:37.557Z,70.76
2022-11-20T00:54:04.282Z,71.25
2022-11-20T00:56:30.799Z,70.81
2022-11-20T00:59:01.011Z,70.46
2022-11-20T01:01:30.105Z,70.53
2022-11-20T01:03:59.501Z,70.36
2022-11-20T01:06:34.274Z,70.96
2022-11-20T01:09:12.395Z,71.53
2022-11-20T01:11:42.471Z,72.25
2022-11-20T01:14:13.496Z,71.80
2022-11-20T01:16:46.363Z,72.04
2022-11-20T01:19:17.886Z,71.91
2022-11-20T01:21:46.913Z,72.21
2022-11-20T01:24:15.871Z,72.32
2022-11-20T01:26:44.618Z,70.96
2022-11-20T01:29:16.241Z,71.66
2022-11-20T01:31:43.481Z,71.31
2022-11-20T01:34:15.749Z,71.97
2022-11-20T01:36:43.707Z,72.84
2022-11-20T01:39:15.246Z,72.88
2022-11-20T01:42:05.696Z,73.04
2022-11-20T01:44:50.200Z,74.76
2022-11-20T01:47:41.918Z,74.29
2022-11-20T01:50:17.175Z,74.77
2022-11-20T01:52:49.186Z,74.20
2022-11-20T01:55:20.551Z,75.33
2022-11-20T01:57:49.542Z,74.54
2022-11-20T02:00:18.695Z,75.30
2022-11-20T02:02:51.958Z,75.60
2022-11-20T02:05:47.575Z,75.65
2022-11-20T02:08:14.861Z,75.46
2022-11-20T02:10:41.457Z,75.99
2022-11-20T02:13:27.918Z,75.65
2022-11-20T02:15:54.823Z,76.10
2022-11-20T02:18:22.442Z,76.13
2022-11-20T02:20:58.033Z,76.79
2022-11-20T02:23:44.764Z,75.82
2022-11-20T02:26:14.573Z,76.65
2022-11-20T02:28:41.447Z,75.84
2022-11-20T02:31:08.746Z,76.06
2022-11-20T02:33:35.350Z,76.00
2022-11-20T02:36:02.384Z,76.03
2022-11-20T02:38:29.163Z,76.10
2022-11-20T02:40:55.997Z,76.22
2022-11-20T02:43:23.603Z,75.72
2022-11-20T02:45:50.149Z,75.60
2022-11-20T02:48:16.809Z,76.17
2022-11-20T02:50:43.781Z,76.29
2022-11-20T02:53:10.450Z,76.60
2022-11-20T02:55:37.747Z,76.82
2022-11-20T02:58:04.317Z,76.69
2022-11-20T03:00:30.976Z,76.74
2022-11-20T03:02:57.623Z,76.68
2022-11-20T03:05:24.234Z,75.65
2022-11-20T03:07:50.876Z,76.01
2022-11-20T03:10:17.659Z,76.23
2022-11-20T03:12:44.252Z,75.87
2022-11-20T03:15:11.551Z,76.19
2022-11-20T03:17:38.210Z,76.08
2022-11-20T03:20:05.424Z,75.86
2022-11-20T03:22:32.032Z,75.41
2022-11-20T03:24:58.686Z,75.93
2022-11-20T03:27:25.298Z,76.03
2022-11-20T03:29:51.852Z,75.36
2022-11-20T03:32:18.418Z,75.84
2022-11-20T03:34:45.231Z,76.12
2022-11-20T03:37:11.813Z,76.66
2022-11-20T03:39:38.369Z,75.99
2022-11-20T03:42:24.928Z,76.03
2022-11-20T03:44:51.518Z,76.66
2022-11-20T03:47:18.082Z,76.65
2022-11-20T03:49:44.608Z,76.31
2022-11-20T03:52:11.166Z,76.89
2022-11-20T03:54:37.702Z,76.50
2022-11-20T03:57:04.329Z,76.61
2022-11-20T03:59:30.879Z,76.36
2022-11-20T04:01:57.478Z,76.05
2022-11-20T04:04:24.142Z,77.21
2022-11-20T04:06:50.694Z,76.54
2022-11-20T04:09:17.351Z,76.03
2022-11-20T04:11:43.966Z,76.43
2022-11-20T04:14:17.154Z,76.20
2022-11-20T04:16:44.435Z,76.35
2022-11-20T04:19:13.556Z,76.26
2022-11-20T04:21:40.082Z,76.14
2022-11-20T04:24:07.221Z,76.44
2022-11-20T04:26:34.242Z,76.46
2022-11-20T04:29:02.769Z,76.34
2022-11-20T04:31:32.021Z,76.27
2022-11-20T04:34:06.586Z,76.73
2022-11-20T04:36:33.486Z,76.34
2022-11-20T04:39:02.763Z,75.85
2022-11-20T04:41:32.069Z,76.51
2022-11-20T04:44:03.384Z,76.83
2022-11-20T04:46:35.615Z,76.78
2022-11-20T04:49:02.272Z,77.13
2022-11-20T04:51:28.891Z,76.90
2022-11-20T04:53:55.533Z,76.98
2022-11-20T04:56:22.112Z,76.93
2022-11-20T04:58:48.725Z,76.73
2022-11-20T05:01:25.602Z,76.62
2022-11-20T05:03:52.871Z,77.18
2022-11-20T05:06:22.135Z,76.96
2022-11-20T05:08:49.018Z,77.43
2022-11-20T05:11:18.742Z,77.10
2022-11-20T05:13:45.528Z,77.19
2022-11-20T05:16:15.465Z,77.52
2022-11-20T05:18:42.764Z,77.58
2022-11-20T05:21:10.736Z,78.53
2022-11-20T05:23:38.144Z,78.73
2022-11-20T05:26:06.506Z,79.28
2022-11-20T05:28:33.661Z,79.02
2022-11-20T05:31:11.762Z,78.83
2022-11-20T05:33:41.853Z,80.40
2022-11-20T05:36:09.145Z,80.85
2022-11-20T05:38:36.023Z,80.24
2022-11-20T05:41:05.840Z,80.98
2022-11-20T05:43:36.958Z,80.51
2022-11-20T05:46:04.640Z,80.86
2022-11-20T05:48:31.759Z,80.80
2022-11-20T05:50:59.719Z,80.83
2022-11-20T05:53:27.713Z,80.93
2022-11-20T05:56:02.524Z,81.78
2022-11-20T05:58:29.406Z,81.59
2022-11-20T06:01:03.796Z,81.44
2022-11-20T06:03:30.363Z,82.01
2022-11-20T06:05:56.911Z,80.90
2022-11-20T06:08:23.484Z,82.51
2022-11-20T06:10:50.074Z,84.08
2022-11-20T06:13:16.716Z,83.79
2022-11-20T06:15:43.254Z,82.85
2022-11-20T06:18:09.849Z,83.33
2022-11-20T06:20:41.807Z,83.74
2022-11-20T06:23:08.569Z,83.19
2022-11-20T06:25:39.243Z,83.49
2022-11-20T06:28:05.766Z,82.77
2022-11-20T06:30:32.520Z,83.54
2022-11-20T06:32:59.115Z,83.12
2022-11-20T06:35:25.674Z,82.88
2022-11-20T06:37:52.247Z,82.67
2022-11-20T06:40:18.774Z,82.36
2022-11-20T06:42:45.962Z,82.86
2022-11-20T06:45:12.615Z,82.91
2022-11-20T06:47:39.164Z,82.34
2022-11-20T06:50:06.105Z,82.48
2022-11-20T06:52:32.708Z,82.51
2022-11-20T06:54:59.292Z,82.12
2022-11-20T06:57:26.004Z,81.92
2022-11-20T06:59:52.542Z,81.92
2022-11-20T07:02:19.139Z,82.46
2022-11-20T07:04:45.784Z,81.95
2022-11-20T07:07:12.429Z,81.53
2022-11-20T07:09:39.006Z,82.08
2022-11-20T07:12:05.850Z,82.06
2022-11-20T07:14:32.407Z,81.27
2022-11-20T07:16:58.922Z,80.64
2022-11-20T07:19:25.467Z,81.03
2022-11-20T07:21:52.781Z,80.58
2022-11-20T07:24:19.310Z,80.08
2022-11-20T07:26:51.265Z,80.24
2022-11-20T07:29:17.890Z,79.80
2022-11-20T07:31:44.534Z,80.56
2022-11-20T07:34:11.214Z,80.38
2022-11-20T07:36:37.770Z,79.91
2022-11-20T07:39:04.524Z,80.21
2022-11-20T07:41:31.182Z,79.49
2022-11-20T07:43:57.801Z,80.01
2022-11-20T07:46:24.357Z,79.77
2022-11-20T07:48:51.051Z,80.25
2022-11-20T07:51:17.603Z,79.95
2022-11-20T07:53:44.194Z,79.94
2022-11-20T07:56:10.770Z,80.22
2022-11-20T07:58:37.520Z,79.59
2022-11-20T08:01:05.751Z,79.49
2022-11-20T08:03:32.427Z,79.21
2022-11-20T08:06:02.643Z,78.50
2022-11-20T08:08:33.533Z,78.37
2022-11-20T08:11:19.351Z,78.24
2022-11-20T08:14:04.237Z,78.79
2022-11-20T08:16:30.975Z,78.35
2022-11-20T08:18:57.529Z,78.62
2022-11-20T08:21:24.953Z,78.76
2022-11-20T08:23:51.876Z,78.36
2022-11-20T08:26:18.599Z,78.76
2022-11-20T08:28:45.439Z,78.98
2022-11-20T08:31:12.185Z,78.71
2022-11-20T08:33:38.807Z,79.74
2022-11-20T08:36:07.156Z,78.97
2022-11-20T08:38:34.020Z,79.66
2022-11-20T08:41:21.447Z,79.27
2022-11-20T08:43:48.242Z,80.31
2022-11-20T08:46:15.125Z,79.92
2022-11-20T08:48:41.769Z,80.21
2022-11-20T08:51:08.543Z,80.56
2022-11-20T08:53:35.244Z,81.16
2022-11-20T08:56:02.429Z,81.20
2022-11-20T08:58:29.005Z,81.48
2022-11-20T09:00:55.650Z,80.59
2022-11-20T09:03:22.379Z,80.73
2022-11-20T09:05:49.227Z,81.19
2022-11-20T09:08:16.042Z,80.91
2022-11-20T09:10:42.635Z,80.17
2022-11-20T09:13:09.220Z,80.25
2022-11-20T09:15:35.821Z,80.28
2022-11-20T09:18:05.397Z,79.93
2022-11-20T09:20:35.019Z,79.75
2022-11-20T09:23:01.559Z,79.40
2022-11-20T09:25:28.227Z,79.92
2022-11-20T09:27:59.050Z,78.93
2022-11-20T09:30:26.610Z,78.87
2022-11-20T09:32:53.297Z,79.14
2022-11-20T09:35:19.964Z,79.19
2022-11-20T09:37:46.756Z,79.46
2022-11-20T09:40:26.430Z,78.74
2022-11-20T09:43:11.534Z,78.67
2022-11-20T09:45:59.384Z,78.72
2022-11-20T09:48:54.900Z,78.66
2022-11-20T09:52:06.497Z,77.44
2022-11-20T09:54:39.335Z,77.29
2022-11-20T09:57:40.739Z,77.63
2022-11-20T10:00:14.688Z,78.13
2022-11-20T10:02:47.751Z,78.30
2022-11-20T10:05:26.795Z,78.53
2022-11-20T10:08:11.721Z,78.19
2022-11-20T10:11:09.582Z,78.73
2022-11-20T10:13:49.023Z,79.17
2022-11-20T10:16:42.588Z,79.34
2022-11-20T10:19:30.721Z,79.68
2022-11-20T10:22:25.365Z,79.33
2022-11-20T10:25:20.939Z,79.55
2022-11-20T10:27:53.562Z,79.66
2022-11-20T10:30:23.069Z,80.17
2022-11-20T10:33:14.254Z,79.96
2022-11-20T10:36:14.817Z,80.12
2022-11-20T10:38:50.612Z,80.23
2022-11-20T10:41:27.134Z,80.14
2022-11-20T10:44:05.847Z,79.60
2022-11-20T10:46:46.711Z,80.12
2022-11-20T10:49:17.058Z,79.95
2022-11-20T10:52:05.132Z,80.08
2022-11-20T10:54:47.581Z,80.53
2022-11-20T10:57:27.199Z,80.42
2022-11-20T11:00:23.113Z,80.94
2022-11-20T11:02:54.457Z,80.45
2022-11-20T11:05:46.213Z,80.55
2022-11-20T11:08:19.045Z,80.41
2022-11-20T11:10:57.152Z,79.65
2022-11-20T11:13:28.520Z,80.10
2022-11-20T11:15:55.566Z,79.79
2022-11-20T11:18:34.441Z,79.86
2022-11-20T11:21:04.261Z,79.80
2022-11-20T11:23:38.720Z,79.57
2022-11-20T11:26:08.279Z,79.76
2022-11-20T11:28:35.444Z,79.52
2022-11-20T11:31:02.076Z,79.30
2022-11-20T11:33:34.787Z,79.52
2022-11-20T11:36:04.892Z,79.19
2022-11-20T11:38:44.115Z,79.03
2022-11-20T11:41:17.428Z,78.64
2022-11-20T11:44:14.957Z,78.91
2022-11-20T11:46:46.731Z,78.75
2022-11-20T11:49:17.927Z,78.96
2022-11-20T11:52:01.107Z,78.42
2022-11-20T11:54:40.228Z,78.46
2022-11-20T11:57:32.503Z,78.67
2022-11-20T12:00:01.977Z,78.71
2022-11-20T12:03:03.807Z,78.73
2022-11-20T12:05:39.582Z,79.09
2022-11-20T12:08:18.417Z,79.09
2022-11-20T12:11:00.491Z,79.31
2022-11-20T12:13:45.929Z,79.13
2022-11-20T12:16:15.275Z,79.01
2022-11-20T12:18:43.412Z,79.10
2022-11-20T12:21:23.741Z,79.30
2022-11-20T12:23:53.146Z,79.11
2022-11-20T12:26:45.901Z,79.06
2022-11-20T12:29:30.922Z,79.20
2022-11-20T12:32:07.239Z,79.25
2022-11-20T12:34:33.764Z,79.26
2022-11-20T12:37:21.326Z,79.91
2022-11-20T12:39:53.319Z,79.64
2022-11-20T12:43:07.589Z,79.34
2022-11-20T12:45:36.783Z,79.39
2022-11-20T12:48:24.988Z,79.36
2022-11-20T12:51:22.610Z,79.67
2022-11-20T12:54:04.298Z,79.80
2022-11-20T12:56:40.354Z,79.76
2022-11-20T12:59:25.867Z,79.88
2022-11-20T13:02:14.414Z,79.81
2022-11-20T13:04:58.692Z,79.61
2022-11-20T13:07:28.338Z,79.81
2022-11-20T13:09:55.825Z,79.63
2022-11-20T13:12:35.416Z,80.25
2022-11-20T13:15:36.036Z,80.44
2022-11-20T13:18:05.000Z,80.13
2022-11-20T13:20:34.579Z,80.09
2022-11-20T13:23:01.126Z,80.64
2022-11-20T13:25:32.879Z,80.52
2022-11-20T13:28:10.811Z,80.83
2022-11-20T13:30:49.530Z,80.52
2022-11-20T13:33:36.616Z,80.29
2022-11-20T13:36:06.591Z,80.47
2022-11-20T13:38:49.279Z,80.79
2022-11-20T13:41:32.308Z,80.95
2022-11-20T13:44:25.008Z,81.25
2022-11-20T13:46:51.945Z,81.37
2022-11-20T13:49:24.418Z,80.99
2022-11-20T13:51:55.336Z,81.26
2022-11-20T13:54:39.904Z,81.51
2022-11-20T13:57:27.888Z,81.52
2022-11-20T14:00:15.782Z,81.81
2022-11-20T14:02:43.833Z,82.07
2022-11-20T14:05:23.031Z,81.96
2022-11-20T14:07:51.536Z,81.97
2022-11-20T14:10:32.022Z,82.58
2022-11-20T14:12:59.661Z,82.75
2022-11-20T14:15:26.207Z,82.96
2022-11-20T14:17:52.921Z,82.94
2022-11-20T14:20:24.169Z,83.16
2022-11-20T14:22:54.295Z,83.55
2022-11-20T14:25:24.347Z,83.30
2022-11-20T14:28:02.263Z,83.69
2022-11-20T14:30:49.816Z,83.56
2022-11-20T14:33:17.235Z,83.94
2022-11-20T14:35:49.160Z,83.74
2022-11-20T14:38:19.664Z,83.35
2022-11-20T14:40:46.415Z,82.86
2022-11-20T14:43:25.844Z,83.59
2022-11-20T14:46:04.878Z,83.80
2022-11-20T14:48:36.458Z,83.54
2022-11-20T14:51:03.256Z,83.83
2022-11-20T14:53:29.907Z,83.93
2022-11-20T14:56:02.189Z,83.80
2022-11-20T14:58:32.378Z,84.31
2022-11-20T15:01:07.079Z,84.38
2022-11-20T15:03:39.432Z,84.39
2022-11-20T15:06:08.929Z,84.06
2022-11-20T15:08:36.008Z,84.21
2022-11-20T15:11:03.143Z,84.45
2022-11-20T15:13:38.649Z,85.10
2022-11-20T15:16:14.753Z,85.31
2022-11-20T15:18:45.585Z,84.64
2022-11-20T15:21:17.797Z,85.07
2022-11-20T15:23:44.689Z,85.16
2022-11-20T15:26:19.535Z,85.45
2022-11-20T15:28:48.778Z,85.74
2022-11-20T15:31:18.082Z,85.60
2022-11-20T15:33:44.709Z,85.50
2022-11-20T15:36:11.663Z,85.77
2022-11-20T15:38:38.447Z,86.21
2022-11-20T15:41:05.478Z,85.74
2022-11-20T15:43:32.180Z,86.34
2022-11-20T15:46:06.166Z,86.36
2022-11-20T15:48:49.686Z,86.22
2022-11-20T15:51:36.179Z,86.46
2022-11-20T15:54:11.702Z,86.61
2022-11-20T15:56:38.659Z,86.44
2022-11-20T15:59:05.443Z,87.18
2022-11-20T16:01:32.370Z,87.08
2022-11-20T16:03:58.978Z,86.91
2022-11-20T16:06:25.603Z,87.17
2022-11-20T16:08:52.188Z,86.71
2022-11-20T16:11:19.399Z,87.08
2022-11-20T16:14:04.511Z,86.86
2022-11-20T16:16:34.635Z,87.68
2022-11-20T16:19:01.292Z,87.60
2022-11-20T16:21:32.330Z,87.63
2022-11-20T16:24:05.162Z,87.99
2022-11-20T16:26:32.373Z,88.03
2022-11-20T16:29:03.735Z,88.01
2022-11-20T16:31:30.840Z,88.01
2022-11-20T16:33:59.534Z,87.93
2022-11-20T16:36:32.298Z,88.13
2022-11-20T16:39:01.416Z,88.29
2022-11-20T16:41:30.950Z,88.16
2022-11-20T16:43:59.314Z,87.90
2022-11-20T16:46:28.095Z,88.60
2022-11-20T16:48:55.823Z,88.72
2022-11-20T16:51:24.184Z,88.40
2022-11-20T16:53:51.486Z,88.26
2022-11-20T16:56:20.391Z,88.08
2022-11-20T16:58:49.762Z,88.07
2022-11-20T17:01:21.301Z,87.90
2022-11-20T17:03:55.492Z,87.64
2022-11-20T17:06:25.008Z,87.79
2022-11-20T17:08:51.747Z,88.47
2022-11-20T17:11:19.879Z,87.93
2022-11-20T17:13:47.331Z,88.30
2022-11-20T17:16:16.835Z,88.23
2022-11-20T17:18:44.485Z,88.02
2022-11-20T17:21:12.006Z,88.89
2022-11-20T17:23:41.359Z,88.41
2022-11-20T17:26:17.768Z,88.45
2022-11-20T17:28:46.302Z,88.23
2022-11-20T17:31:15.792Z,87.75
2022-11-20T17:33:44.308Z,88.02
2022-11-20T17:36:12.738Z,87.86
2022-11-20T17:38:39.318Z,88.62
2022-11-20T17:41:08.637Z,88.46
2022-11-20T17:43:39.081Z,88.51
2022-11-20T17:46:17.812Z,88.49
2022-11-20T17:48:45.915Z,88.17
2022-11-20T17:51:23.776Z,88.00
2022-11-20T17:53:52.829Z,88.16
2022-11-20T17:56:38.547Z,88.18
2022-11-20T17:59:07.050Z,88.10
2022-11-20T18:01:34.175Z,88.07
2022-11-20T18:04:01.250Z,88.04
2022-11-20T18:06:29.121Z,88.42
2022-11-20T18:08:57.972Z,88.52
2022-11-20T18:11:27.067Z,88.28
2022-11-20T18:14:15.886Z,87.83
2022-11-20T18:16:48.151Z,88.06
2022-11-20T18:19:17.728Z,88.21
2022-11-20T18:21:44.383Z,88.40
2022-11-20T18:24:11.487Z,88.29
2022-11-20T18:26:43.910Z,88.08
2022-11-20T18:29:12.441Z,88.25
2022-11-20T18:31:39.597Z,87.88
2022-11-20T18:34:11.481Z,88.04
2022-11-20T18:36:38.946Z,87.90
2022-11-20T18:39:05.916Z,88.52
2022-11-20T18:41:51.468Z,88.10
2022-11-20T18:44:37.887Z,87.95
2022-11-20T18:47:13.750Z,88.74
2022-11-20T18:49:42.390Z,88.57
2022-11-20T18:52:09.030Z,88.90
2022-11-20T18:54:36.941Z,88.59
2022-11-20T18:57:05.260Z,89.22
2022-11-20T18:59:32.285Z,89.33
2022-11-20T19:01:59.001Z,90.09
2022-11-20T19:04:25.895Z,89.94
2022-11-20T19:06:56.156Z,89.64
2022-11-20T19:09:23.630Z,89.55
2022-11-20T19:11:50.849Z,89.96
2022-11-20T19:14:17.793Z,89.68
2022-11-20T19:16:44.419Z,89.58
2022-11-20T19:19:11.862Z,90.26
2022-11-20T19:21:38.537Z,90.05
2022-11-20T19:24:05.567Z,90.61
2022-11-20T19:26:35.451Z,90.80
2022-11-20T19:29:02.426Z,90.61
2022-11-20T19:31:29.126Z,90.05
2022-11-20T19:33:58.386Z,90.32
2022-11-20T19:36:30.639Z,90.16
2022-11-20T19:38:58.727Z,89.62
2022-11-20T19:41:31.510Z,90.32
2022-11-20T19:44:00.048Z,89.75
2022-11-20T19:46:27.647Z,90.31
2022-11-20T19:48:55.632Z,90.08
2022-11-20T19:51:25.006Z,90.09
2022-11-20T19:53:52.076Z,90.12
2022-11-20T19:56:19.340Z,90.32
2022-11-20T19:58:45.902Z,90.50
2022-11-20T20:01:15.761Z,89.97
2022-11-20T20:03:42.602Z,90.40
2022-11-20T20:06:12.082Z,90.00
2022-11-20T20:08:38.618Z,90.04
2022-11-20T20:11:16.876Z,89.96
2022-11-20T20:13:44.135Z,89.93
2022-11-20T20:16:16.050Z,90.16
2022-11-20T20:18:42.938Z,90.16
2022-11-20T20:21:15.405Z,89.94
2022-11-20T20:23:43.242Z,90.26
2022-11-20T20:26:11.453Z,90.45
2022-11-20T20:28:38.955Z,90.51
2022-11-20T20:31:07.888Z,90.18
2022-11-20T20:33:38.621Z,90.65
2022-11-20T20:36:06.371Z,90.68
2022-11-20T20:38:33.870Z,90.89
2022-11-20T20:41:01.098Z,91.07
2022-11-20T20:43:28.168Z,91.02
2022-11-20T20:45:55.352Z,91.48
2022-11-20T20:48:24.190Z,91.02
2022-11-20T20:50:55.471Z,91.77
2022-11-20T20:53:22.392Z,91.07
2022-11-20T20:56:00.234Z,91.46
2022-11-20T20:58:28.034Z,92.01
2022-11-20T21:00:55.136Z,92.11
2022-11-20T21:03:21.768Z,91.64
2022-11-20T21:05:56.747Z,92.25
2022-11-20T21:08:28.154Z,91.92
2022-11-20T21:11:06.819Z,91.80
2022-11-20T21:13:34.610Z,91.61
2022-11-20T21:16:01.720Z,91.73
2022-11-20T21:18:28.763Z,91.76
2022-11-20T21:21:14.408Z,91.37
2022-11-20T21:23:42.681Z,91.44
2022-11-20T21:26:09.686Z,91.60
2022-11-20T21:28:37.697Z,92.27
2022-11-20T21:31:08.217Z,92.34
2022-11-20T21:33:45.964Z,91.81
2022-11-20T21:36:17.591Z,91.91
2022-11-20T21:38:45.021Z,91.43
2022-11-20T21:41:12.944Z,91.76
2022-11-20T21:43:40.148Z,91.68
2022-11-20T21:46:09.190Z,91.54
2022-11-20T21:48:37.839Z,91.20
2022-11-20T21:51:10.350Z,91.00
2022-11-20T21:53:37.091Z,90.40
2022-11-20T21:56:04.734Z,90.29
2022-11-20T21:58:31.638Z,90.02
2022-11-20T22:00:58.239Z,89.88
2022-11-20T22:03:24.860Z,89.69
2022-11-20T22:05:58.390Z,89.69
2022-11-20T22:08:26.066Z,89.44
2022-11-20T22:11:01.139Z,88.82
2022-11-20T22:13:46.935Z,88.51
2022-11-20T22:16:14.331Z,88.90
2022-11-20T22:18:58.911Z,89.06
2022-11-20T22:21:28.562Z,88.87
2022-11-20T22:23:55.860Z,88.52
2022-11-20T22:26:39.691Z,88.17
2022-11-20T22:29:07.331Z,88.51
2022-11-20T22:31:34.173Z,88.57
2022-11-20T22:34:02.584Z,88.80
2022-11-20T22:36:31.626Z,88.35
2022-11-20T22:38:58.839Z,88.63
2022-11-20T22:41:27.483Z,88.37
2022-11-20T22:44:01.953Z,88.58
2022-11-20T22:46:31.157Z,88.50
2022-11-20T22:49:00.178Z,88.24
2022-11-20T22:51:35.454Z,88.33
2022-11-20T22:54:03.604Z,88.19
2022-11-20T22:56:30.859Z,88.45
2022-11-20T22:58:57.497Z,88.47
2022-11-20T23:01:27.078Z,88.61
2022-11-20T23:04:01.826Z,88.77
2022-11-20T23:06:29.008Z,88.27
2022-11-20T23:08:56.459Z,88.80
2022-11-20T23:11:28.519Z,88.63
2022-11-20T23:13:58.187Z,88.69
2022-11-20T23:16:26.391Z,88.71
2022-11-20T23:19:14.531Z,88.92
2022-11-20T23:21:42.514Z,89.03
2022-11-20T23:24:09.827Z,88.93
2022-11-20T23:26:39.675Z,88.95
2022-11-20T23:29:06.470Z,88.81
2022-11-20T23:31:34.843Z,89.22
2022-11-20T23:34:01.504Z,89.03
2022-11-20T23:36:28.167Z,88.49
2022-11-20T23:38:54.913Z,88.90
2022-11-20T23:41:21.591Z,88.63
2022-11-20T23:43:48.119Z,89.05
2022-11-20T23:46:16.671Z,88.70
2022-11-20T23:48:44.984Z,88.58
2022-11-20T23:51:12.105Z,89.16
2022-11-20T23:53:38.706Z,88.86
2022-11-20T23:56:06.193Z,88.88
2022-11-20T23:58:35.906Z,88.49
